createdAt,value
2023-02-02T00:01:20.003Z,4.68
2023-02-02T00:06:19.420Z,4.74
2023-02-02T00:11:19.385Z,4.87
2023-02-02T00:16:34.944Z,4.71
2023-02-02T00:21:34.135Z,4.68
2023-02-02T00:26:32.030Z,4.82
2023-02-02T00:31:29.798Z,4.61
2023-02-02T00:36:27.604Z,4.78
2023-02-02T00:41:26.784Z,4.61
2023-02-02T00:46:24.653Z,4.59
2023-02-02T00:51:22.447Z,4.53
2023-02-02T00:56:20.290Z,4.25
2023-02-02T01:01:21.168Z,4.17
2023-02-02T01:06:19.247Z,4.05
2023-02-02T01:11:17.521Z,3.97
2023-02-02T01:16:15.966Z,3.90
2023-02-02T01:21:15.267Z,3.80
2023-02-02T01:26:13.688Z,3.69
2023-02-02T01:31:12.542Z,3.74
2023-02-02T01:36:12.111Z,3.57
2023-02-02T01:41:13.281Z,3.54
2023-02-02T01:46:12.556Z,3.35
2023-02-02T01:51:12.665Z,3.35
2023-02-02T01:56:13.747Z,3.34
2023-02-02T02:01:12.455Z,3.20
2023-02-02T02:06:12.513Z,3.08
2023-02-02T02:11:11.739Z,3.05
2023-02-02T02:16:22.996Z,3.08
2023-02-02T02:21:51.566Z,2.98
2023-02-02T02:27:15.552Z,2.86
2023-02-02T02:32:20.294Z,2.93
2023-02-02T02:37:22.978Z,2.85
2023-02-02T02:42:22.395Z,2.92
2023-02-02T02:47:23.376Z,2.94
2023-02-02T02:52:21.238Z,2.75
2023-02-02T02:57:35.649Z,2.84
2023-02-02T03:02:40.942Z,2.87
2023-02-02T03:07:42.802Z,2.89
2023-02-02T03:12:45.167Z,2.96
2023-02-02T03:17:44.773Z,2.98
2023-02-02T03:22:42.552Z,2.91
2023-02-02T03:27:40.627Z,2.82
2023-02-02T03:32:38.951Z,2.86
2023-02-02T03:37:39.519Z,3.01
2023-02-02T03:42:37.579Z,2.80
2023-02-02T03:47:35.336Z,2.73
2023-02-02T03:52:33.118Z,2.71
2023-02-02T03:57:32.298Z,2.75
2023-02-02T04:02:30.127Z,2.85
2023-02-02T04:07:28.151Z,2.71
2023-02-02T04:12:25.941Z,2.85
2023-02-02T04:17:25.102Z,3.05
2023-02-02T04:22:22.903Z,3.03
2023-02-02T04:27:20.704Z,3.05
2023-02-02T04:32:18.996Z,3.07
2023-02-02T04:37:18.143Z,3.19
2023-02-02T04:42:15.924Z,3.18
2023-02-02T04:47:13.783Z,3.11
2023-02-02T04:52:12.198Z,3.04
2023-02-02T04:57:11.369Z,3.24
2023-02-02T05:02:09.319Z,3.10
2023-02-02T05:07:07.217Z,3.00
2023-02-02T05:12:05.278Z,2.86
2023-02-02T05:17:04.470Z,2.90
2023-02-02T05:22:02.351Z,3.03
2023-02-02T05:27:00.824Z,2.86
2023-02-02T05:31:58.895Z,3.02
2023-02-02T05:36:58.078Z,3.04
2023-02-02T05:41:55.869Z,3.10
2023-02-02T05:46:53.672Z,3.05
2023-02-02T05:51:53.087Z,3.16
2023-02-02T05:56:53.199Z,2.93
2023-02-02T06:01:50.991Z,3.00
2023-02-02T06:06:49.005Z,2.95
2023-02-02T06:11:46.815Z,3.31
2023-02-02T06:16:45.992Z,3.42
2023-02-02T06:21:43.759Z,3.35
2023-02-02T06:26:41.672Z,3.88
2023-02-02T06:31:39.531Z,3.62
2023-02-02T06:36:38.729Z,3.58
2023-02-02T06:41:36.587Z,3.75
2023-02-02T06:46:34.739Z,4.73
2023-02-02T06:51:32.575Z,5.95
2023-02-02T06:56:31.789Z,5.52
2023-02-02T07:01:29.655Z,5.41
2023-02-02T07:06:28.379Z,5.23
2023-02-02T07:11:26.180Z,5.54
2023-02-02T07:16:25.606Z,6.64
2023-02-02T07:21:24.787Z,7.30
2023-02-02T07:26:22.600Z,8.20
2023-02-02T07:31:21.282Z,8.99
2023-02-02T07:36:21.301Z,9.24
2023-02-02T07:41:19.087Z,8.30
2023-02-02T07:46:17.387Z,7.56
2023-02-02T07:51:15.947Z,7.56
2023-02-02T07:56:16.165Z,7.16
2023-02-02T08:01:14.586Z,8.09
2023-02-02T08:06:13.666Z,8.52
2023-02-02T08:11:12.114Z,9.00
2023-02-02T08:16:11.817Z,9.41
2023-02-02T08:21:09.915Z,10.05
2023-02-02T08:26:08.995Z,10.34
2023-02-02T08:31:08.018Z,10.67
2023-02-02T08:36:09.563Z,10.76
2023-02-02T08:41:08.077Z,11.33
2023-02-02T08:46:06.288Z,10.77
2023-02-02T08:51:04.561Z,11.26
2023-02-02T08:56:05.249Z,11.34
2023-02-02T09:01:07.100Z,11.36
2023-02-02T09:06:05.891Z,9.96
2023-02-02T09:11:06.588Z,9.63
2023-02-02T09:16:05.548Z,9.27
2023-02-02T09:21:04.663Z,9.08
2023-02-02T09:26:11.535Z,8.88
2023-02-02T09:31:09.715Z,8.73
2023-02-02T09:36:08.709Z,9.06
2023-02-02T09:41:30.508Z,9.61
2023-02-02T09:46:34.920Z,10.58
2023-02-02T09:51:36.331Z,11.86
2023-02-02T09:56:39.279Z,11.98
2023-02-02T10:01:42.910Z,12.28
2023-02-02T10:06:41.957Z,12.07
2023-02-02T10:11:44.769Z,11.58
2023-02-02T10:16:44.339Z,10.99
2023-02-02T10:21:45.339Z,10.52
2023-02-02T10:26:46.802Z,10.36
2023-02-02T10:31:50.577Z,10.19
2023-02-02T10:36:55.260Z,10.46
2023-02-02T10:41:56.713Z,10.49
2023-02-02T10:46:57.356Z,10.85
2023-02-02T10:51:58.108Z,10.93
2023-02-02T10:56:59.439Z,10.79
2023-02-02T11:02:03.715Z,10.26
2023-02-02T11:07:06.743Z,9.85
2023-02-02T11:12:06.193Z,9.93
2023-02-02T11:17:06.427Z,9.84
2023-02-02T11:22:04.825Z,9.98
2023-02-02T11:27:04.246Z,9.74
2023-02-02T11:32:16.899Z,9.59
2023-02-02T11:37:17.055Z,9.52
2023-02-02T11:42:16.285Z,9.59
2023-02-02T11:47:19.843Z,9.42
2023-02-02T11:52:20.581Z,9.56
2023-02-02T11:57:20.060Z,9.29
2023-02-02T12:02:25.559Z,9.18
2023-02-02T12:07:27.174Z,9.32
2023-02-02T12:12:34.506Z,9.23
2023-02-02T12:17:38.991Z,8.78
2023-02-02T12:22:47.051Z,8.66
2023-02-02T12:27:49.369Z,8.49
2023-02-02T12:32:55.890Z,8.20
2023-02-02T12:37:59.786Z,7.92
2023-02-02T12:43:05.101Z,7.68
2023-02-02T12:48:17.400Z,7.64
2023-02-02T12:53:25.029Z,7.50
2023-02-02T12:58:28.985Z,7.39
2023-02-02T13:03:33.023Z,7.63
2023-02-02T13:08:34.487Z,7.47
2023-02-02T13:13:35.772Z,7.48
2023-02-02T13:18:38.193Z,7.54
2023-02-02T13:23:38.359Z,7.46
2023-02-02T13:28:39.356Z,7.37
2023-02-02T13:33:38.014Z,7.12
2023-02-02T13:38:42.175Z,7.23
2023-02-02T13:43:45.211Z,7.14
2023-02-02T13:48:50.844Z,6.98
2023-02-02T13:53:58.171Z,7.09
2023-02-02T13:59:02.101Z,6.98
2023-02-02T14:04:01.541Z,7.13
2023-02-02T14:09:02.944Z,7.08
2023-02-02T14:14:21.127Z,7.09
2023-02-02T14:19:41.952Z,6.95
2023-02-02T14:24:53.639Z,6.85
2023-02-02T14:30:01.136Z,6.85
2023-02-02T14:35:00.276Z,6.67
2023-02-02T14:40:05.194Z,6.88
2023-02-02T14:45:08.532Z,6.79
2023-02-02T14:50:13.480Z,6.66
2023-02-02T14:55:22.647Z,6.71
2023-02-02T15:00:24.953Z,6.23
2023-02-02T15:05:41.808Z,6.20
2023-02-02T15:11:01.444Z,5.91
2023-02-02T15:16:07.581Z,5.84
2023-02-02T15:21:07.748Z,5.65
2023-02-02T15:26:09.705Z,5.99
2023-02-02T15:31:09.796Z,5.85
2023-02-02T15:36:13.079Z,6.07
2023-02-02T15:41:19.698Z,5.99
2023-02-02T15:46:24.376Z,5.77
2023-02-02T15:51:22.652Z,5.17
2023-02-02T15:56:29.335Z,5.14
2023-02-02T16:01:28.080Z,4.81
2023-02-02T16:06:26.029Z,4.67
2023-02-02T16:11:25.210Z,4.65
2023-02-02T16:16:24.243Z,4.44
2023-02-02T16:21:25.068Z,4.38
2023-02-02T16:26:25.320Z,4.15
2023-02-02T16:31:24.646Z,4.08
2023-02-02T16:36:25.576Z,4.01
2023-02-02T16:41:28.460Z,4.09
2023-02-02T16:46:44.713Z,4.05
2023-02-02T16:51:42.544Z,3.84
2023-02-02T16:56:41.414Z,3.85
2023-02-02T17:01:40.791Z,3.71
2023-02-02T17:06:51.962Z,3.65
2023-02-02T17:11:58.268Z,3.49
2023-02-02T17:16:56.175Z,3.47
2023-02-02T17:21:55.737Z,3.43
2023-02-02T17:26:53.629Z,3.32
2023-02-02T17:31:52.144Z,3.44
2023-02-02T17:36:50.047Z,3.56
2023-02-02T17:41:50.308Z,3.36
2023-02-02T17:46:48.119Z,3.44
2023-02-02T17:51:46.074Z,3.29
2023-02-02T17:56:44.123Z,3.25
2023-02-02T18:01:43.489Z,3.08
2023-02-02T18:06:41.367Z,3.09
2023-02-02T18:11:41.453Z,3.19
2023-02-02T18:16:40.187Z,3.17
2023-02-02T18:21:39.408Z,3.16
2023-02-02T18:26:37.344Z,3.12
2023-02-02T18:31:35.215Z,2.97
2023-02-02T18:36:34.072Z,3.04
2023-02-02T18:41:33.278Z,2.98
2023-02-02T18:46:33.847Z,3.06
2023-02-02T18:51:32.397Z,2.87
2023-02-02T18:56:30.539Z,2.89
2023-02-02T19:01:30.156Z,2.96
2023-02-02T19:06:45.849Z,2.89
2023-02-02T19:11:45.034Z,2.80
2023-02-02T19:16:47.794Z,2.88
2023-02-02T19:21:45.598Z,2.73
2023-02-02T19:26:46.745Z,2.78
2023-02-02T19:31:46.099Z,2.92
2023-02-02T19:36:46.967Z,2.82
2023-02-02T19:41:44.780Z,2.73
2023-02-02T19:46:43.620Z,2.85
2023-02-02T19:51:44.004Z,2.81
2023-02-02T19:56:41.875Z,2.73
2023-02-02T20:01:40.594Z,2.69
2023-02-02T20:06:52.676Z,2.77
2023-02-02T20:11:57.519Z,2.79
2023-02-02T20:16:58.048Z,2.71
2023-02-02T20:21:57.208Z,2.72
2023-02-02T20:26:56.267Z,2.54
2023-02-02T20:31:56.632Z,2.40
2023-02-02T20:36:58.821Z,2.47
2023-02-02T20:41:58.740Z,2.38
2023-02-02T20:46:58.228Z,2.14
2023-02-02T20:51:56.775Z,2.13
2023-02-02T20:56:54.609Z,1.94
2023-02-02T21:01:53.061Z,1.89
2023-02-02T21:06:52.227Z,1.88
2023-02-02T21:11:50.006Z,1.68
2023-02-02T21:16:47.900Z,1.73
2023-02-02T21:21:45.704Z,1.72
2023-02-02T21:26:44.872Z,1.81
2023-02-02T21:31:43.273Z,2.07
2023-02-02T21:36:43.970Z,2.08
2023-02-02T21:41:41.763Z,2.19
2023-02-02T21:46:41.070Z,2.04
2023-02-02T21:51:38.911Z,2.11
2023-02-02T21:56:39.144Z,2.03
2023-02-02T22:01:39.716Z,2.13
2023-02-02T22:06:42.264Z,2.03
2023-02-02T22:11:45.546Z,2.17
2023-02-02T22:16:45.511Z,2.17
2023-02-02T22:21:44.659Z,1.89
2023-02-02T22:26:42.932Z,2.10
2023-02-02T22:31:40.776Z,2.03
2023-02-02T22:36:38.566Z,2.04
2023-02-02T22:41:37.716Z,2.07
2023-02-02T22:46:35.468Z,2.09
2023-02-02T22:51:33.335Z,2.20
2023-02-02T22:56:32.059Z,2.17
2023-02-02T23:01:31.242Z,2.20
2023-02-02T23:06:29.018Z,2.02
2023-02-02T23:11:26.857Z,2.09
2023-02-02T23:16:24.673Z,2.09
2023-02-02T23:21:23.900Z,2.21
2023-02-02T23:26:21.657Z,1.95
2023-02-02T23:31:19.621Z,2.06
2023-02-02T23:36:17.445Z,2.11
2023-02-02T23:41:16.578Z,2.18
2023-02-02T23:46:14.387Z,2.14
2023-02-02T23:51:12.566Z,2.10
2023-02-02T23:56:10.580Z,2.25
